createdAt,value
2019-03-29T00:00:30.318Z,102107.15
2019-03-29T00:03:35.216Z,102120.31
2019-03-29T00:06:39.762Z,102117.67
2019-03-29T00:09:44.792Z,102123.34
2019-03-29T00:12:49.233Z,102125.56
2019-03-29T00:15:53.873Z,102124.24
2019-03-29T00:18:58.969Z,102121.16
2019-03-29T00:22:04.945Z,102125.55
2019-03-29T00:25:10.287Z,102126.88
2019-03-29T00:28:14.702Z,102124.25
2019-03-29T00:31:19.120Z,102113.27
2019-03-29T00:34:23.921Z,102111.55
2019-03-29T00:37:28.761Z,102101.42
2019-03-29T00:40:34.777Z,102103.17
2019-03-29T00:43:39.520Z,102098.79
2019-03-29T00:46:44.085Z,102099.22
2019-03-29T00:49:49.185Z,102095.30
2019-03-29T00:52:53.607Z,102097.48
2019-03-29T00:55:58.150Z,102097.05
2019-03-29T00:59:02.551Z,102095.30
2019-03-29T01:02:07.058Z,102104.52
2019-03-29T01:05:11.817Z,102093.56
2019-03-29T01:08:16.576Z,102098.38
2019-03-29T01:11:20.987Z,102090.08
2019-03-29T01:14:25.448Z,102086.59
2019-03-29T01:17:30.638Z,102086.58
2019-03-29T01:20:35.034Z,102090.11
2019-03-29T01:23:39.467Z,102094.48
2019-03-29T01:26:43.943Z,102088.33
2019-03-29T01:29:48.651Z,102082.20
2019-03-29T01:32:53.467Z,102088.77
2019-03-29T01:35:58.546Z,102087.02
2019-03-29T01:39:04.187Z,102086.58
2019-03-29T01:42:08.661Z,102088.34
2019-03-29T01:45:13.881Z,102088.77
2019-03-29T01:48:18.339Z,102091.83
2019-03-29T01:51:23.385Z,102086.58
2019-03-29T01:54:27.951Z,102076.49
2019-03-29T01:57:32.974Z,102078.70
2019-03-29T02:00:37.645Z,102073.87
2019-03-29T02:03:42.178Z,102076.94
2019-03-29T02:06:46.660Z,102066.00
2019-03-29T02:09:52.205Z,102069.92
2019-03-29T02:12:56.707Z,102063.36
2019-03-29T02:16:01.952Z,102067.31
2019-03-29T02:19:06.549Z,102058.52
2019-03-29T02:22:11.519Z,102059.38
2019-03-29T02:25:16.419Z,102061.56
2019-03-29T02:28:21.378Z,102060.70
2019-03-29T02:31:26.464Z,102058.55
2019-03-29T02:34:31.919Z,102055.02
2019-03-29T02:37:36.411Z,102049.77
2019-03-29T02:40:41.215Z,102046.67
2019-03-29T02:43:45.689Z,102050.20
2019-03-29T02:46:50.690Z,102051.08
2019-03-29T02:49:57.616Z,102043.64
2019-03-29T02:53:02.046Z,102042.75
2019-03-29T02:56:06.842Z,102042.78
2019-03-29T02:59:11.670Z,102038.39
2019-03-29T03:02:16.231Z,102040.56
2019-03-29T03:05:20.754Z,102034.00
2019-03-29T03:08:25.466Z,102032.66
2019-03-29T03:11:30.272Z,102036.53
2019-03-29T03:14:34.744Z,102033.52
2019-03-29T03:17:39.330Z,102035.73
2019-03-29T03:20:44.160Z,102038.36
2019-03-29T03:23:48.632Z,102041.42
2019-03-29T03:26:53.170Z,102045.34
2019-03-29T03:29:58.333Z,102041.85
2019-03-29T03:33:03.035Z,102041.86
2019-03-29T03:36:07.272Z,102037.42
2019-03-29T03:39:30.193Z,102041.79
2019-03-29T03:42:18.205Z,102035.67
2019-03-29T03:45:22.848Z,102026.47
2019-03-29T03:48:28.223Z,102029.95
2019-03-29T03:51:33.513Z,102027.31
2019-03-29T03:54:38.570Z,102021.17
2019-03-29T03:57:43.690Z,102025.98
2019-03-29T04:00:56.682Z,102021.61
2019-03-29T04:04:01.312Z,102021.14
2019-03-29T04:07:05.733Z,102026.80
2019-03-29T04:10:10.233Z,102031.08
2019-03-29T04:13:15.090Z,102032.30
2019-03-29T04:16:19.427Z,102037.13
2019-03-29T04:19:24.016Z,102036.69
2019-03-29T04:22:28.741Z,102029.23
2019-03-29T04:25:33.274Z,102033.55
2019-03-29T04:28:38.079Z,102032.64
2019-03-29T04:31:42.573Z,102029.12
2019-03-29T04:34:47.032Z,102031.70
2019-03-29T04:37:52.122Z,102032.45
2019-03-29T04:40:56.886Z,102038.50
2019-03-29T04:44:01.801Z,102044.55
2019-03-29T04:47:06.546Z,102046.28
2019-03-29T04:50:13.290Z,102047.20
2019-03-29T04:53:18.059Z,102049.80
2019-03-29T04:56:22.977Z,102043.62
2019-03-29T04:59:27.549Z,102052.70
2019-03-29T05:02:32.332Z,102048.67
2019-03-29T05:05:36.879Z,102046.94
2019-03-29T05:08:41.430Z,102044.39
2019-03-29T05:11:45.880Z,102043.16
2019-03-29T05:14:50.836Z,102042.76
2019-03-29T05:17:55.601Z,102047.53
2019-03-29T05:21:00.745Z,102051.41
2019-03-29T05:24:05.236Z,102048.86
2019-03-29T05:27:10.234Z,102051.95
2019-03-29T05:30:15.165Z,102051.94
2019-03-29T05:33:19.622Z,102048.91
2019-03-29T05:36:23.989Z,102046.74
2019-03-29T05:39:28.519Z,102050.73
2019-03-29T05:42:33.069Z,102051.69
2019-03-29T05:45:38.273Z,102053.95
2019-03-29T05:48:43.080Z,102054.33
2019-03-29T05:51:48.228Z,102053.02
2019-03-29T05:54:52.658Z,102048.20
2019-03-29T05:57:57.383Z,102051.78
2019-03-29T06:01:02.365Z,102044.84
2019-03-29T06:04:07.247Z,102044.89
2019-03-29T06:07:11.724Z,102044.94
2019-03-29T06:10:16.512Z,102038.90
2019-03-29T06:13:21.581Z,102036.81
2019-03-29T06:16:38.378Z,102043.50
2019-03-29T06:19:33.321Z,102034.41
2019-03-29T06:22:38.641Z,102033.99
2019-03-29T06:25:43.106Z,102034.42
2019-03-29T06:28:48.251Z,102026.53
2019-03-29T06:31:52.788Z,102024.33
2019-03-29T06:34:57.400Z,102027.79
2019-03-29T06:38:03.411Z,102028.20
2019-03-29T06:41:08.247Z,102027.72
2019-03-29T06:44:12.848Z,102028.56
2019-03-29T06:47:19.274Z,102026.75
2019-03-29T06:50:23.762Z,102028.46
2019-03-29T06:53:28.708Z,102025.36
2019-03-29T06:56:33.705Z,102022.25
2019-03-29T06:59:38.703Z,102024.42
2019-03-29T07:02:43.344Z,102024.80
2019-03-29T07:05:47.976Z,102026.55
2019-03-29T07:08:52.455Z,102027.39
2019-03-29T07:11:57.741Z,102023.80
2019-03-29T07:15:02.392Z,102027.75
2019-03-29T07:18:06.931Z,102022.41
2019-03-29T07:21:21.332Z,102026.27
2019-03-29T07:24:17.724Z,102024.86
2019-03-29T07:27:22.652Z,102018.17
2019-03-29T07:30:27.168Z,102019.38
2019-03-29T07:33:32.265Z,102011.84
2019-03-29T07:36:37.089Z,102011.28
2019-03-29T07:39:41.539Z,102016.95
2019-03-29T07:42:45.926Z,102021.49
2019-03-29T07:45:50.674Z,102010.34
2019-03-29T07:48:55.102Z,102010.78
2019-03-29T07:52:00.555Z,102011.95
2019-03-29T07:55:05.738Z,102004.72
2019-03-29T07:58:10.410Z,102006.50
2019-03-29T08:01:14.894Z,101999.50
2019-03-29T08:04:21.599Z,101997.98
2019-03-29T08:07:27.445Z,101991.58
2019-03-29T08:10:32.800Z,101997.96
2019-03-29T08:13:37.305Z,101989.70
2019-03-29T08:16:42.130Z,101987.86
2019-03-29T08:19:46.682Z,102000.67
2019-03-29T08:22:51.517Z,101997.85
2019-03-29T08:25:56.451Z,102002.14
2019-03-29T08:29:01.270Z,101997.30
2019-03-29T08:32:05.862Z,102000.25
2019-03-29T08:35:11.875Z,101993.41
2019-03-29T08:38:16.311Z,101988.25
2019-03-29T08:41:20.808Z,101995.16
2019-03-29T08:44:25.571Z,101985.83
2019-03-29T08:47:30.011Z,101983.64
2019-03-29T08:50:34.380Z,101983.52
2019-03-29T08:53:39.030Z,101983.71
2019-03-29T08:56:43.538Z,101983.28
2019-03-29T08:59:48.499Z,101982.39
2019-03-29T09:02:53.389Z,101981.40
2019-03-29T09:05:59.763Z,101980.16
2019-03-29T09:09:06.383Z,101978.06
2019-03-29T09:12:14.641Z,101969.44
2019-03-29T09:15:17.880Z,101966.07
2019-03-29T09:18:25.755Z,101969.40
2019-03-29T09:21:29.058Z,101956.81
2019-03-29T09:24:34.080Z,101955.87
2019-03-29T09:27:38.805Z,101947.79
2019-03-29T09:30:43.934Z,101947.46
2019-03-29T09:33:48.839Z,101946.78
2019-03-29T09:36:53.311Z,101942.37
2019-03-29T09:39:57.850Z,101939.23
2019-03-29T09:43:09.615Z,101943.46
2019-03-29T09:46:08.685Z,101944.05
2019-03-29T09:49:13.234Z,101937.48
2019-03-29T09:52:17.781Z,101938.64
2019-03-29T09:55:22.476Z,101930.69
2019-03-29T09:58:26.977Z,101933.95
2019-03-29T10:01:31.623Z,101934.05
2019-03-29T10:04:36.602Z,101923.23
2019-03-29T10:07:41.138Z,101923.23
2019-03-29T10:10:45.819Z,101917.64
2019-03-29T10:13:50.261Z,101901.66
2019-03-29T10:16:55.079Z,101912.41
2019-03-29T10:19:59.554Z,101900.09
2019-03-29T10:23:04.178Z,101907.21
2019-03-29T10:26:08.654Z,101913.32
2019-03-29T10:29:13.171Z,101903.63
2019-03-29T10:32:17.878Z,101903.63
2019-03-29T10:35:23.663Z,101900.50
2019-03-29T10:38:28.326Z,101891.42
2019-03-29T10:41:34.547Z,101883.80
2019-03-29T10:44:39.714Z,101883.53
2019-03-29T10:47:45.035Z,101878.44
2019-03-29T10:50:49.457Z,101875.84
2019-03-29T10:53:54.106Z,101875.08
2019-03-29T10:56:59.010Z,101873.83
2019-03-29T11:00:04.044Z,101868.88
2019-03-29T11:03:08.774Z,101869.10
2019-03-29T11:06:13.230Z,101870.50
2019-03-29T11:09:18.066Z,101868.37
2019-03-29T11:12:22.638Z,101859.58
2019-03-29T11:15:27.038Z,101857.14
2019-03-29T11:18:31.481Z,101858.34
2019-03-29T11:21:35.981Z,101860.14
2019-03-29T11:24:40.349Z,101856.37
2019-03-29T11:27:44.986Z,101857.20
2019-03-29T11:30:49.533Z,101855.22
2019-03-29T11:33:53.931Z,101851.31
2019-03-29T11:36:58.448Z,101849.41
2019-03-29T11:40:03.022Z,101844.14
2019-03-29T11:43:07.609Z,101848.61
2019-03-29T11:46:12.136Z,101838.95
2019-03-29T11:49:17.001Z,101840.40
2019-03-29T11:52:21.335Z,101842.30
2019-03-29T11:55:25.723Z,101842.38
2019-03-29T11:58:30.202Z,101830.00
2019-03-29T12:01:34.714Z,101821.95
2019-03-29T12:04:39.180Z,101823.66
2019-03-29T12:07:43.616Z,101817.81
2019-03-29T12:10:48.071Z,101809.23
2019-03-29T12:13:52.669Z,101807.71
2019-03-29T12:16:57.639Z,101799.41
2019-03-29T12:20:02.299Z,101804.23
2019-03-29T12:23:06.699Z,101799.78
2019-03-29T12:26:11.455Z,101789.92
2019-03-29T12:29:15.946Z,101788.68
2019-03-29T12:32:20.409Z,101779.98
2019-03-29T12:35:24.833Z,101770.64
2019-03-29T12:38:29.169Z,101771.85
2019-03-29T12:41:33.525Z,101762.95
2019-03-29T12:44:38.306Z,101759.97
2019-03-29T12:47:42.708Z,101751.38
2019-03-29T12:50:47.122Z,101751.07
2019-03-29T12:53:51.600Z,101743.53
2019-03-29T12:56:56.097Z,101740.31
2019-03-29T13:00:00.841Z,101730.17
2019-03-29T13:03:05.428Z,101732.95
2019-03-29T13:06:09.922Z,101735.56
2019-03-29T13:09:14.350Z,101733.39
2019-03-29T13:12:19.113Z,101722.19
2019-03-29T13:15:23.714Z,101724.18
2019-03-29T13:18:28.332Z,101708.16
2019-03-29T13:21:32.704Z,101705.02
2019-03-29T13:24:37.122Z,101707.38
2019-03-29T13:27:41.834Z,101702.75
2019-03-29T13:30:46.888Z,101700.39
2019-03-29T13:33:51.421Z,101691.61
2019-03-29T13:36:55.801Z,101675.03
2019-03-29T13:40:00.402Z,101674.72
2019-03-29T13:43:05.077Z,101671.28
2019-03-29T13:46:09.588Z,101662.17
2019-03-29T13:49:13.967Z,101667.37
2019-03-29T13:52:18.271Z,101657.52
2019-03-29T13:55:22.839Z,101662.38
2019-03-29T13:58:27.163Z,101650.79
2019-03-29T14:01:31.726Z,101658.67
2019-03-29T14:04:36.216Z,101650.00
2019-03-29T14:07:40.497Z,101645.78
2019-03-29T14:10:44.977Z,101640.05
2019-03-29T14:13:49.301Z,101641.51
2019-03-29T14:16:53.636Z,101628.67
2019-03-29T14:19:57.920Z,101632.28
2019-03-29T14:23:03.104Z,101627.39
2019-03-29T14:26:07.533Z,101622.97
2019-03-29T14:29:11.919Z,101613.83
2019-03-29T14:32:16.303Z,101610.92
2019-03-29T14:35:20.630Z,101606.48
2019-03-29T14:38:25.100Z,101606.69
2019-03-29T14:41:29.718Z,101599.53
2019-03-29T14:44:34.208Z,101599.61
2019-03-29T14:47:43.024Z,101585.66
2019-03-29T14:50:44.789Z,101578.22
2019-03-29T14:53:50.262Z,101572.97
2019-03-29T14:56:55.199Z,101570.13
2019-03-29T14:59:59.704Z,101564.52
2019-03-29T15:03:04.167Z,101562.17
2019-03-29T15:06:08.629Z,101564.70
2019-03-29T15:09:13.298Z,101565.17
2019-03-29T15:12:17.718Z,101552.56
2019-03-29T15:15:22.225Z,101551.10
2019-03-29T15:18:26.771Z,101562.83
2019-03-29T15:21:31.454Z,101556.63
2019-03-29T15:24:36.368Z,101554.34
2019-03-29T15:27:41.480Z,101558.02
2019-03-29T15:30:45.907Z,101540.77
2019-03-29T15:33:50.295Z,101537.31
2019-03-29T15:36:54.907Z,101529.65
2019-03-29T15:39:59.364Z,101535.55
2019-03-29T15:43:03.718Z,101523.98
2019-03-29T15:46:08.141Z,101523.58
2019-03-29T15:49:12.698Z,101525.88
2019-03-29T15:52:17.000Z,101520.20
2019-03-29T15:55:21.526Z,101512.38
2019-03-29T15:58:26.450Z,101513.71
2019-03-29T16:01:30.898Z,101523.97
2019-03-29T16:04:35.440Z,101521.36
2019-03-29T16:07:39.943Z,101519.34
2019-03-29T16:10:44.830Z,101518.69
2019-03-29T16:13:49.534Z,101514.16
2019-03-29T16:16:53.855Z,101517.84
2019-03-29T16:19:58.477Z,101516.14
2019-03-29T16:23:02.810Z,101519.30
2019-03-29T16:26:07.115Z,101510.80
2019-03-29T16:29:11.842Z,101505.33
2019-03-29T16:32:16.238Z,101507.64
2019-03-29T16:35:20.622Z,101501.05
2019-03-29T16:38:25.501Z,101509.22
2019-03-29T16:41:29.946Z,101497.48
2019-03-29T16:44:34.583Z,101502.98
2019-03-29T16:47:39.007Z,101507.38
2019-03-29T16:50:43.317Z,101508.28
2019-03-29T16:53:47.637Z,101504.77
2019-03-29T16:56:51.931Z,101512.61
2019-03-29T16:59:56.239Z,101510.28
2019-03-29T17:03:00.610Z,101509.02
2019-03-29T17:06:05.302Z,101513.02
2019-03-29T17:09:09.856Z,101510.04
2019-03-29T17:12:14.244Z,101509.16
2019-03-29T17:15:19.916Z,101511.28
2019-03-29T17:18:29.570Z,101508.52
2019-03-29T17:21:30.683Z,101505.34
2019-03-29T17:24:35.068Z,101497.44
2019-03-29T17:27:39.547Z,101501.97
2019-03-29T17:30:48.407Z,101503.42
2019-03-29T17:33:52.989Z,101509.10
2019-03-29T17:36:57.637Z,101499.92
2019-03-29T17:40:02.171Z,101501.72
2019-03-29T17:43:06.565Z,101494.81
2019-03-29T17:46:16.548Z,101501.70
2019-03-29T17:49:17.331Z,101502.05
2019-03-29T17:52:22.075Z,101504.72
2019-03-29T17:55:26.455Z,101503.20
2019-03-29T17:58:31.228Z,101504.56
2019-03-29T18:01:39.181Z,101508.43
2019-03-29T18:04:42.214Z,101508.83
2019-03-29T18:07:47.242Z,101503.70
2019-03-29T18:10:52.227Z,101503.51
2019-03-29T18:13:56.631Z,101511.37
2019-03-29T18:17:00.982Z,101511.23
2019-03-29T18:20:05.898Z,101509.03
2019-03-29T18:23:10.301Z,101512.02
2019-03-29T18:26:14.795Z,101510.52
2019-03-29T18:29:19.246Z,101511.23
2019-03-29T18:32:23.876Z,101509.00
2019-03-29T18:35:28.684Z,101516.19
2019-03-29T18:38:34.957Z,101514.31
2019-03-29T18:41:39.261Z,101514.65
2019-03-29T18:44:43.978Z,101525.94
2019-03-29T18:47:48.671Z,101524.73
2019-03-29T18:50:53.038Z,101526.88
2019-03-29T18:53:57.393Z,101521.66
2019-03-29T18:57:02.043Z,101524.30
2019-03-29T19:00:08.141Z,101522.69
2019-03-29T19:03:12.642Z,101519.22
2019-03-29T19:06:17.394Z,101517.92
2019-03-29T19:09:22.508Z,101515.50
2019-03-29T19:12:27.020Z,101513.75
2019-03-29T19:15:31.896Z,101507.63
2019-03-29T19:18:36.336Z,101517.31
2019-03-29T19:21:41.024Z,101520.99
2019-03-29T19:24:45.428Z,101507.99
2019-03-29T19:27:49.889Z,101507.99
2019-03-29T19:30:54.886Z,101512.13
2019-03-29T19:33:59.598Z,101516.11
2019-03-29T19:37:04.077Z,101506.56
2019-03-29T19:40:08.829Z,101497.72
2019-03-29T19:43:13.386Z,101505.63
2019-03-29T19:46:18.251Z,101510.00
2019-03-29T19:49:24.453Z,101507.77
2019-03-29T19:52:29.035Z,101512.51
2019-03-29T19:55:33.598Z,101509.67
2019-03-29T19:58:38.128Z,101504.55
2019-03-29T20:01:42.583Z,101505.52
2019-03-29T20:04:48.688Z,101499.03
2019-03-29T20:07:53.560Z,101504.27
2019-03-29T20:10:58.060Z,101497.91
2019-03-29T20:14:02.848Z,101501.45
2019-03-29T20:17:07.420Z,101501.13
2019-03-29T20:20:16.067Z,101507.48
2019-03-29T20:23:20.525Z,101509.72
2019-03-29T20:26:25.041Z,101506.23
2019-03-29T20:29:30.092Z,101509.09
2019-03-29T20:32:34.858Z,101506.17
2019-03-29T20:35:39.343Z,101504.08
2019-03-29T20:38:44.822Z,101500.65
2019-03-29T20:41:49.280Z,101505.52
2019-03-29T20:44:54.182Z,101500.80
2019-03-29T20:47:58.609Z,101500.28
2019-03-29T20:51:03.140Z,101498.91
2019-03-29T20:54:07.840Z,101498.69
2019-03-29T20:57:12.548Z,101501.28
2019-03-29T21:00:18.320Z,101501.96
2019-03-29T21:03:22.786Z,101502.45
2019-03-29T21:06:27.138Z,101496.77
2019-03-29T21:09:31.455Z,101497.18
2019-03-29T21:12:36.205Z,101498.95
2019-03-29T21:15:41.016Z,101490.66
2019-03-29T21:18:45.629Z,101496.88
2019-03-29T21:21:50.052Z,101491.56
2019-03-29T21:24:54.460Z,101490.42
2019-03-29T21:27:58.878Z,101486.55
2019-03-29T21:31:03.215Z,101484.02
2019-03-29T21:34:07.593Z,101489.34
2019-03-29T21:37:12.261Z,101489.04
2019-03-29T21:40:17.099Z,101478.52
2019-03-29T21:43:21.880Z,101490.54
2019-03-29T21:46:26.552Z,101482.33
2019-03-29T21:49:31.326Z,101481.94
2019-03-29T21:52:36.122Z,101478.05
2019-03-29T21:55:40.674Z,101477.75
2019-03-29T21:58:45.100Z,101481.35
2019-03-29T22:01:49.598Z,101469.91
2019-03-29T22:04:54.370Z,101471.80
2019-03-29T22:07:59.229Z,101470.05
2019-03-29T22:11:03.621Z,101460.40
2019-03-29T22:14:08.073Z,101462.23
2019-03-29T22:17:12.467Z,101462.34
2019-03-29T22:20:16.796Z,101461.97
2019-03-29T22:23:21.338Z,101461.19
2019-03-29T22:26:25.890Z,101452.22
2019-03-29T22:29:30.519Z,101449.17
2019-03-29T22:32:34.904Z,101446.19
2019-03-29T22:35:39.737Z,101448.07
2019-03-29T22:38:44.410Z,101445.14
2019-03-29T22:41:48.830Z,101441.13
2019-03-29T22:44:53.243Z,101438.48
2019-03-29T22:47:57.676Z,101436.61
2019-03-29T22:51:02.329Z,101443.39
2019-03-29T22:54:06.722Z,101438.84
2019-03-29T22:57:11.225Z,101443.36
2019-03-29T23:00:20.889Z,101434.66
2019-03-29T23:03:25.706Z,101438.22
2019-03-29T23:06:30.571Z,101434.79
2019-03-29T23:09:35.001Z,101441.39
2019-03-29T23:12:39.341Z,101430.94
2019-03-29T23:15:44.016Z,101431.33
2019-03-29T23:18:48.766Z,101432.75
2019-03-29T23:21:53.239Z,101430.23
2019-03-29T23:24:59.645Z,101432.40
2019-03-29T23:28:04.368Z,101424.25
2019-03-29T23:31:08.874Z,101431.67
2019-03-29T23:34:13.645Z,101426.25
2019-03-29T23:37:18.545Z,101424.98
2019-03-29T23:40:23.296Z,101424.14
2019-03-29T23:43:27.904Z,101425.85
2019-03-29T23:46:32.378Z,101422.41
2019-03-29T23:49:37.515Z,101423.33
2019-03-29T23:52:43.059Z,101418.11
2019-03-29T23:55:47.894Z,101415.06
2019-03-29T23:58:52.412Z,101414.59
